Weather at Beverly Regional Airport

Public forecast

Using degrees Fahrenheit for public forecast. Weather courtesy of forecast.io.

Current aviation weather report (METAR) for Beverly Regional Airport

Retrieved 2020/09/29 21:53 UTC (20 minutes ago):

KBVY 292153Z 19008KT 10SM CLR 24/18 A2985 RMK AO2 SLP101 T02390178

Closest aviation forecast (TAF) to Beverly Regional Airport

Closest forecast is General Edward Lawrence Logan International Airport, 13.8 nm (25.5 km) SSW. Retrieved 2020/09/29 18:32 UTC (4 hours ago):

TAF KBOS 291729Z 2918/3024 16007KT P6SM FEW030 BKN250 FM300200 17008KT 5SM BR OVC010 FM300800 16013G28KT 3SM -RA BR OVC008 WS020/19040KT FM301100 20016G35KT 3SM -RA BR OVC015 FM301600 23013G25KT P6SM VCSH BKN020 FM302200 24010G17KT P6SM SCT030